sensor_id;sensor_type;location;lat;lon;timestamp;P1;durP1;ratioP1;P2;durP2;ratioP2
12363;SDS011;6246;50.826;4.712;2023-02-21T00:02:12;44.70;;;30.57;;
12363;SDS011;6246;50.826;4.712;2023-02-21T00:04:57;45.60;;;32.30;;
12363;SDS011;6246;50.826;4.712;2023-02-21T00:07:42;42.90;;;29.37;;
12363;SDS011;6246;50.826;4.712;2023-02-21T00:10:26;38.30;;;28.43;;
12363;SDS011;6246;50.826;4.712;2023-02-21T00:13:11;42.47;;;30.17;;
12363;SDS011;6246;50.826;4.712;2023-02-21T00:15:56;42.97;;;29.53;;
12363;SDS011;6246;50.826;4.712;2023-02-21T00:18:40;43.10;;;29.77;;
12363;SDS011;6246;50.826;4.712;2023-02-21T00:21:28;39.10;;;29.30;;
12363;SDS011;6246;50.826;4.712;2023-02-21T00:24:14;37.60;;;28.47;;
12363;SDS011;6246;50.826;4.712;2023-02-21T00:26:59;36.37;;;27.70;;
12363;SDS011;6246;50.826;4.712;2023-02-21T00:29:43;38.20;;;28.03;;
12363;SDS011;6246;50.826;4.712;2023-02-21T00:32:28;38.00;;;28.60;;
12363;SDS011;6246;50.826;4.712;2023-02-21T00:35:12;37.30;;;27.43;;
12363;SDS011;6246;50.826;4.712;2023-02-21T00:37:56;41.37;;;29.03;;
12363;SDS011;6246;50.826;4.712;2023-02-21T00:40:41;38.03;;;28.27;;
12363;SDS011;6246;50.826;4.712;2023-02-21T00:43:26;39.23;;;28.57;;
12363;SDS011;6246;50.826;4.712;2023-02-21T00:46:11;38.40;;;27.90;;
12363;SDS011;6246;50.826;4.712;2023-02-21T00:48:56;36.10;;;26.87;;
12363;SDS011;6246;50.826;4.712;2023-02-21T00:51:40;36.37;;;27.10;;
12363;SDS011;6246;50.826;4.712;2023-02-21T00:54:25;39.10;;;27.53;;
12363;SDS011;6246;50.826;4.712;2023-02-21T00:57:10;36.80;;;27.33;;
12363;SDS011;6246;50.826;4.712;2023-02-21T00:59:54;40.77;;;27.00;;
12363;SDS011;6246;50.826;4.712;2023-02-21T01:02:39;35.63;;;26.07;;
12363;SDS011;6246;50.826;4.712;2023-02-21T01:05:23;38.30;;;25.70;;
12363;SDS011;6246;50.826;4.712;2023-02-21T01:08:08;36.63;;;26.83;;
12363;SDS011;6246;50.826;4.712;2023-02-21T01:10:52;34.03;;;25.63;;
12363;SDS011;6246;50.826;4.712;2023-02-21T01:13:37;34.23;;;25.67;;
12363;SDS011;6246;50.826;4.712;2023-02-21T01:16:21;34.13;;;24.70;;
12363;SDS011;6246;50.826;4.712;2023-02-21T01:19:06;37.30;;;26.00;;
12363;SDS011;6246;50.826;4.712;2023-02-21T01:21:51;33.53;;;25.07;;
12363;SDS011;6246;50.826;4.712;2023-02-21T01:24:35;31.87;;;23.37;;
12363;SDS011;6246;50.826;4.712;2023-02-21T01:27:20;32.03;;;23.80;;
12363;SDS011;6246;50.826;4.712;2023-02-21T01:30:04;31.17;;;23.97;;
12363;SDS011;6246;50.826;4.712;2023-02-21T01:32:49;33.73;;;23.63;;
12363;SDS011;6246;50.826;4.712;2023-02-21T01:35:34;30.97;;;22.17;;
12363;SDS011;6246;50.826;4.712;2023-02-21T01:38:18;31.33;;;23.30;;
12363;SDS011;6246;50.826;4.712;2023-02-21T01:41:03;30.80;;;22.70;;
12363;SDS011;6246;50.826;4.712;2023-02-21T01:44:35;30.43;;;22.33;;
12363;SDS011;6246;50.826;4.712;2023-02-21T01:46:52;29.87;;;22.03;;
12363;SDS011;6246;50.826;4.712;2023-02-21T01:49:37;33.20;;;22.43;;
12363;SDS011;6246;50.826;4.712;2023-02-21T01:52:23;29.67;;;21.80;;
12363;SDS011;6246;50.826;4.712;2023-02-21T01:55:08;27.30;;;20.73;;
12363;SDS011;6246;50.826;4.712;2023-02-21T01:57:53;30.63;;;21.03;;
12363;SDS011;6246;50.826;4.712;2023-02-21T02:00:39;29.80;;;21.30;;
12363;SDS011;6246;50.826;4.712;2023-02-21T02:03:24;27.70;;;20.80;;
12363;SDS011;6246;50.826;4.712;2023-02-21T02:06:09;27.87;;;20.63;;
12363;SDS011;6246;50.826;4.712;2023-02-21T02:08:55;39.37;;;21.70;;
12363;SDS011;6246;50.826;4.712;2023-02-21T02:14:41;24.77;;;19.00;;
12363;SDS011;6246;50.826;4.712;2023-02-21T02:17:19;26.20;;;19.07;;
12363;SDS011;6246;50.826;4.712;2023-02-21T02:19:54;30.70;;;19.20;;
12363;SDS011;6246;50.826;4.712;2023-02-21T02:30:58;26.07;;;17.90;;
12363;SDS011;6246;50.826;4.712;2023-02-21T02:33:36;25.50;;;18.07;;
12363;SDS011;6246;50.826;4.712;2023-02-21T02:36:07;25.47;;;17.57;;
12363;SDS011;6246;50.826;4.712;2023-02-21T02:38:43;23.93;;;17.80;;
12363;SDS011;6246;50.826;4.712;2023-02-21T02:41:18;22.87;;;17.23;;
12363;SDS011;6246;50.826;4.712;2023-02-21T02:43:50;25.30;;;17.50;;
12363;SDS011;6246;50.826;4.712;2023-02-21T02:46:23;24.13;;;17.20;;
12363;SDS011;6246;50.826;4.712;2023-02-21T02:48:57;24.17;;;17.70;;
12363;SDS011;6246;50.826;4.712;2023-02-21T02:51:24;20.67;;;16.63;;
12363;SDS011;6246;50.826;4.712;2023-02-21T02:53:51;21.00;;;16.33;;
12363;SDS011;6246;50.826;4.712;2023-02-21T02:56:17;22.30;;;16.37;;
12363;SDS011;6246;50.826;4.712;2023-02-21T02:58:51;22.47;;;15.93;;
12363;SDS011;6246;50.826;4.712;2023-02-21T03:04:06;21.90;;;16.23;;
12363;SDS011;6246;50.826;4.712;2023-02-21T03:11:41;20.00;;;15.03;;
12363;SDS011;6246;50.826;4.712;2023-02-21T03:14:11;23.27;;;16.27;;
12363;SDS011;6246;50.826;4.712;2023-02-21T03:16:39;22.10;;;15.40;;
12363;SDS011;6246;50.826;4.712;2023-02-21T03:19:16;20.10;;;14.50;;
12363;SDS011;6246;50.826;4.712;2023-02-21T03:21:48;19.30;;;14.10;;
12363;SDS011;6246;50.826;4.712;2023-02-21T03:24:14;19.47;;;14.37;;
12363;SDS011;6246;50.826;4.712;2023-02-21T03:26:41;19.33;;;14.10;;
12363;SDS011;6246;50.826;4.712;2023-02-21T03:29:08;17.40;;;13.13;;
12363;SDS011;6246;50.826;4.712;2023-02-21T03:31:36;18.37;;;13.80;;
12363;SDS011;6246;50.826;4.712;2023-02-21T03:34:04;18.87;;;13.87;;
12363;SDS011;6246;50.826;4.712;2023-02-21T03:36:31;19.00;;;14.00;;
12363;SDS011;6246;50.826;4.712;2023-02-21T03:38:57;18.17;;;13.20;;
12363;SDS011;6246;50.826;4.712;2023-02-21T03:41:23;17.40;;;13.30;;
12363;SDS011;6246;50.826;4.712;2023-02-21T03:43:49;18.97;;;12.80;;
12363;SDS011;6246;50.826;4.712;2023-02-21T03:46:15;20.07;;;13.53;;
12363;SDS011;6246;50.826;4.712;2023-02-21T03:48:41;16.50;;;12.50;;
12363;SDS011;6246;50.826;4.712;2023-02-21T03:51:07;18.53;;;13.00;;
12363;SDS011;6246;50.826;4.712;2023-02-21T03:53:33;15.17;;;11.80;;
12363;SDS011;6246;50.826;4.712;2023-02-21T03:55:59;17.97;;;12.80;;
12363;SDS011;6246;50.826;4.712;2023-02-21T03:58:25;15.80;;;12.00;;
12363;SDS011;6246;50.826;4.712;2023-02-21T04:00:51;15.60;;;11.67;;
12363;SDS011;6246;50.826;4.712;2023-02-21T04:03:18;16.23;;;11.30;;
12363;SDS011;6246;50.826;4.712;2023-02-21T04:05:44;14.43;;;11.40;;
12363;SDS011;6246;50.826;4.712;2023-02-21T04:08:10;15.17;;;11.20;;
12363;SDS011;6246;50.826;4.712;2023-02-21T04:10:36;15.70;;;11.60;;
12363;SDS011;6246;50.826;4.712;2023-02-21T04:13:02;14.90;;;11.10;;
12363;SDS011;6246;50.826;4.712;2023-02-21T04:15:28;15.90;;;11.17;;
12363;SDS011;6246;50.826;4.712;2023-02-21T04:17:54;15.77;;;11.27;;
12363;SDS011;6246;50.826;4.712;2023-02-21T04:20:20;14.33;;;10.90;;
12363;SDS011;6246;50.826;4.712;2023-02-21T04:22:46;13.43;;;10.23;;
12363;SDS011;6246;50.826;4.712;2023-02-21T04:25:13;14.33;;;10.33;;
12363;SDS011;6246;50.826;4.712;2023-02-21T04:27:39;14.83;;;10.37;;
12363;SDS011;6246;50.826;4.712;2023-02-21T04:30:05;12.87;;;9.87;;
12363;SDS011;6246;50.826;4.712;2023-02-21T04:32:31;13.00;;;9.67;;
12363;SDS011;6246;50.826;4.712;2023-02-21T04:34:57;15.07;;;10.87;;
12363;SDS011;6246;50.826;4.712;2023-02-21T04:37:24;14.10;;;9.77;;
12363;SDS011;6246;50.826;4.712;2023-02-21T04:39:50;11.97;;;9.30;;
12363;SDS011;6246;50.826;4.712;2023-02-21T04:42:16;11.70;;;9.10;;
12363;SDS011;6246;50.826;4.712;2023-02-21T04:44:42;12.80;;;9.83;;
12363;SDS011;6246;50.826;4.712;2023-02-21T04:47:08;12.80;;;9.23;;
12363;SDS011;6246;50.826;4.712;2023-02-21T04:49:34;13.37;;;9.27;;
12363;SDS011;6246;50.826;4.712;2023-02-21T04:52:00;12.80;;;8.97;;
12363;SDS011;6246;50.826;4.712;2023-02-21T04:54:26;11.97;;;9.20;;
12363;SDS011;6246;50.826;4.712;2023-02-21T04:56:52;11.27;;;8.83;;
12363;SDS011;6246;50.826;4.712;2023-02-21T04:59:18;11.27;;;8.70;;
12363;SDS011;6246;50.826;4.712;2023-02-21T05:01:44;13.00;;;9.40;;
12363;SDS011;6246;50.826;4.712;2023-02-21T05:04:10;11.77;;;8.80;;
12363;SDS011;6246;50.826;4.712;2023-02-21T05:06:36;12.53;;;8.30;;
12363;SDS011;6246;50.826;4.712;2023-02-21T05:09:02;10.47;;;8.03;;
12363;SDS011;6246;50.826;4.712;2023-02-21T05:11:31;11.73;;;8.30;;
12363;SDS011;6246;50.826;4.712;2023-02-21T05:13:58;12.00;;;8.27;;
12363;SDS011;6246;50.826;4.712;2023-02-21T05:16:24;10.67;;;7.80;;
12363;SDS011;6246;50.826;4.712;2023-02-21T05:18:50;12.97;;;8.00;;
12363;SDS011;6246;50.826;4.712;2023-02-21T05:21:16;10.17;;;7.37;;
12363;SDS011;6246;50.826;4.712;2023-02-21T05:23:43;11.63;;;7.87;;
12363;SDS011;6246;50.826;4.712;2023-02-21T05:26:19;10.20;;;8.10;;
12363;SDS011;6246;50.826;4.712;2023-02-21T05:28:46;9.63;;;7.33;;
12363;SDS011;6246;50.826;4.712;2023-02-21T05:31:12;10.13;;;7.20;;
12363;SDS011;6246;50.826;4.712;2023-02-21T05:33:38;10.93;;;7.70;;
12363;SDS011;6246;50.826;4.712;2023-02-21T05:36:04;10.47;;;7.80;;
12363;SDS011;6246;50.826;4.712;2023-02-21T05:38:30;10.83;;;7.30;;
12363;SDS011;6246;50.826;4.712;2023-02-21T05:40:56;8.63;;;6.73;;
12363;SDS011;6246;50.826;4.712;2023-02-21T05:43:22;9.60;;;7.27;;
12363;SDS011;6246;50.826;4.712;2023-02-21T05:45:48;10.63;;;7.50;;
12363;SDS011;6246;50.826;4.712;2023-02-21T05:48:15;9.03;;;7.03;;
12363;SDS011;6246;50.826;4.712;2023-02-21T05:50:41;8.77;;;6.90;;
12363;SDS011;6246;50.826;4.712;2023-02-21T05:53:07;9.13;;;6.70;;
12363;SDS011;6246;50.826;4.712;2023-02-21T05:55:34;9.63;;;6.93;;
12363;SDS011;6246;50.826;4.712;2023-02-21T05:58:00;8.97;;;6.80;;
12363;SDS011;6246;50.826;4.712;2023-02-21T06:00:27;9.97;;;6.80;;
12363;SDS011;6246;50.826;4.712;2023-02-21T06:02:53;7.67;;;6.00;;
12363;SDS011;6246;50.826;4.712;2023-02-21T06:05:20;8.03;;;6.10;;
12363;SDS011;6246;50.826;4.712;2023-02-21T06:07:47;7.60;;;6.00;;
12363;SDS011;6246;50.826;4.712;2023-02-21T06:10:13;8.10;;;6.23;;
12363;SDS011;6246;50.826;4.712;2023-02-21T06:12:39;9.13;;;6.43;;
12363;SDS011;6246;50.826;4.712;2023-02-21T06:15:05;10.17;;;6.43;;
12363;SDS011;6246;50.826;4.712;2023-02-21T06:17:32;6.93;;;5.70;;
12363;SDS011;6246;50.826;4.712;2023-02-21T06:19:58;8.80;;;6.57;;
12363;SDS011;6246;50.826;4.712;2023-02-21T06:22:24;7.20;;;5.60;;
12363;SDS011;6246;50.826;4.712;2023-02-21T06:24:50;8.47;;;6.33;;
12363;SDS011;6246;50.826;4.712;2023-02-21T06:27:16;6.87;;;5.73;;
12363;SDS011;6246;50.826;4.712;2023-02-21T06:29:42;6.97;;;5.83;;
12363;SDS011;6246;50.826;4.712;2023-02-21T06:32:08;7.43;;;5.83;;
12363;SDS011;6246;50.826;4.712;2023-02-21T06:34:34;7.63;;;6.20;;
12363;SDS011;6246;50.826;4.712;2023-02-21T06:37:00;8.07;;;6.10;;
12363;SDS011;6246;50.826;4.712;2023-02-21T06:39:26;8.00;;;6.10;;
12363;SDS011;6246;50.826;4.712;2023-02-21T06:41:52;7.80;;;5.60;;
12363;SDS011;6246;50.826;4.712;2023-02-21T06:44:18;6.73;;;5.20;;
12363;SDS011;6246;50.826;4.712;2023-02-21T06:46:44;7.43;;;5.83;;
12363;SDS011;6246;50.826;4.712;2023-02-21T06:49:10;7.80;;;6.10;;
12363;SDS011;6246;50.826;4.712;2023-02-21T06:51:38;6.97;;;5.17;;
12363;SDS011;6246;50.826;4.712;2023-02-21T06:54:04;7.37;;;5.47;;
12363;SDS011;6246;50.826;4.712;2023-02-21T06:56:32;7.07;;;5.63;;
12363;SDS011;6246;50.826;4.712;2023-02-21T06:58:58;6.73;;;5.33;;
12363;SDS011;6246;50.826;4.712;2023-02-21T07:01:25;5.87;;;5.10;;
12363;SDS011;6246;50.826;4.712;2023-02-21T07:03:52;5.47;;;4.93;;
12363;SDS011;6246;50.826;4.712;2023-02-21T07:06:18;8.77;;;6.00;;
12363;SDS011;6246;50.826;4.712;2023-02-21T07:08:44;6.60;;;5.07;;
12363;SDS011;6246;50.826;4.712;2023-02-21T07:11:11;6.93;;;5.50;;
12363;SDS011;6246;50.826;4.712;2023-02-21T07:13:37;6.27;;;5.10;;
12363;SDS011;6246;50.826;4.712;2023-02-21T07:16:03;8.70;;;4.90;;
12363;SDS011;6246;50.826;4.712;2023-02-21T07:18:30;7.37;;;5.57;;
12363;SDS011;6246;50.826;4.712;2023-02-21T07:20:56;6.03;;;4.73;;
12363;SDS011;6246;50.826;4.712;2023-02-21T07:23:22;5.43;;;4.40;;
12363;SDS011;6246;50.826;4.712;2023-02-21T07:25:48;6.60;;;5.27;;
12363;SDS011;6246;50.826;4.712;2023-02-21T07:28:14;6.43;;;5.20;;
12363;SDS011;6246;50.826;4.712;2023-02-21T07:30:40;9.07;;;5.50;;
12363;SDS011;6246;50.826;4.712;2023-02-21T07:33:06;6.23;;;5.00;;
12363;SDS011;6246;50.826;4.712;2023-02-21T07:35:32;7.77;;;5.03;;
12363;SDS011;6246;50.826;4.712;2023-02-21T07:37:58;10.40;;;4.83;;
12363;SDS011;6246;50.826;4.712;2023-02-21T07:40:24;9.27;;;4.97;;
12363;SDS011;6246;50.826;4.712;2023-02-21T07:42:50;6.93;;;4.70;;
12363;SDS011;6246;50.826;4.712;2023-02-21T07:45:16;5.43;;;4.57;;
12363;SDS011;6246;50.826;4.712;2023-02-21T07:47:46;7.80;;;4.43;;
12363;SDS011;6246;50.826;4.712;2023-02-21T07:50:14;7.73;;;4.43;;
12363;SDS011;6246;50.826;4.712;2023-02-21T07:52:40;7.33;;;4.17;;
12363;SDS011;6246;50.826;4.712;2023-02-21T07:55:06;4.60;;;4.00;;
12363;SDS011;6246;50.826;4.712;2023-02-21T07:57:32;5.80;;;4.13;;
12363;SDS011;6246;50.826;4.712;2023-02-21T07:59:58;4.90;;;3.80;;
12363;SDS011;6246;50.826;4.712;2023-02-21T08:02:24;5.57;;;4.00;;
12363;SDS011;6246;50.826;4.712;2023-02-21T08:04:51;6.43;;;4.23;;
12363;SDS011;6246;50.826;4.712;2023-02-21T08:07:17;4.50;;;3.77;;
12363;SDS011;6246;50.826;4.712;2023-02-21T08:09:44;5.03;;;3.67;;
12363;SDS011;6246;50.826;4.712;2023-02-21T08:12:10;6.50;;;3.87;;
12363;SDS011;6246;50.826;4.712;2023-02-21T08:14:36;6.70;;;3.93;;
12363;SDS011;6246;50.826;4.712;2023-02-21T08:17:02;6.13;;;4.00;;
12363;SDS011;6246;50.826;4.712;2023-02-21T08:19:28;4.53;;;4.03;;
12363;SDS011;6246;50.826;4.712;2023-02-21T08:21:54;4.07;;;3.70;;
12363;SDS011;6246;50.826;4.712;2023-02-21T08:24:21;5.40;;;4.27;;
12363;SDS011;6246;50.826;4.712;2023-02-21T08:26:47;7.43;;;5.03;;
12363;SDS011;6246;50.826;4.712;2023-02-21T08:29:13;4.23;;;3.63;;
12363;SDS011;6246;50.826;4.712;2023-02-21T08:31:40;4.80;;;3.90;;
12363;SDS011;6246;50.826;4.712;2023-02-21T08:34:06;6.83;;;4.50;;
12363;SDS011;6246;50.826;4.712;2023-02-21T08:36:34;7.80;;;4.40;;
12363;SDS011;6246;50.826;4.712;2023-02-21T08:39:00;7.33;;;4.00;;
12363;SDS011;6246;50.826;4.712;2023-02-21T08:41:36;4.33;;;3.93;;
12363;SDS011;6246;50.826;4.712;2023-02-21T08:44:03;4.73;;;3.70;;
12363;SDS011;6246;50.826;4.712;2023-02-21T08:46:29;4.30;;;3.90;;
12363;SDS011;6246;50.826;4.712;2023-02-21T08:48:55;6.53;;;4.07;;
12363;SDS011;6246;50.826;4.712;2023-02-21T08:51:25;4.70;;;4.03;;
12363;SDS011;6246;50.826;4.712;2023-02-21T08:53:51;4.20;;;3.70;;
12363;SDS011;6246;50.826;4.712;2023-02-21T08:56:18;6.23;;;4.13;;
12363;SDS011;6246;50.826;4.712;2023-02-21T08:58:45;9.03;;;4.63;;
12363;SDS011;6246;50.826;4.712;2023-02-21T09:01:11;4.83;;;3.70;;
12363;SDS011;6246;50.826;4.712;2023-02-21T09:03:37;5.83;;;4.60;;
12363;SDS011;6246;50.826;4.712;2023-02-21T09:06:03;5.00;;;3.73;;
12363;SDS011;6246;50.826;4.712;2023-02-21T09:08:29;5.90;;;3.93;;
12363;SDS011;6246;50.826;4.712;2023-02-21T09:10:55;6.33;;;4.03;;
12363;SDS011;6246;50.826;4.712;2023-02-21T09:13:28;3.90;;;3.60;;
12363;SDS011;6246;50.826;4.712;2023-02-21T09:15:55;7.27;;;4.63;;
12363;SDS011;6246;50.826;4.712;2023-02-21T09:18:21;4.57;;;4.00;;
12363;SDS011;6246;50.826;4.712;2023-02-21T09:20:47;5.30;;;4.00;;
12363;SDS011;6246;50.826;4.712;2023-02-21T09:23:19;5.83;;;4.20;;
12363;SDS011;6246;50.826;4.712;2023-02-21T09:25:46;6.40;;;4.30;;
12363;SDS011;6246;50.826;4.712;2023-02-21T09:28:12;4.23;;;3.83;;
12363;SDS011;6246;50.826;4.712;2023-02-21T09:30:38;4.20;;;3.67;;
12363;SDS011;6246;50.826;4.712;2023-02-21T09:33:04;4.03;;;3.63;;
12363;SDS011;6246;50.826;4.712;2023-02-21T09:35:30;6.10;;;4.20;;
12363;SDS011;6246;50.826;4.712;2023-02-21T09:37:56;4.93;;;3.83;;
12363;SDS011;6246;50.826;4.712;2023-02-21T09:40:26;6.63;;;4.10;;
12363;SDS011;6246;50.826;4.712;2023-02-21T09:42:54;11.20;;;4.20;;
12363;SDS011;6246;50.826;4.712;2023-02-21T09:45:27;10.60;;;4.20;;
12363;SDS011;6246;50.826;4.712;2023-02-21T09:47:55;19.07;;;4.57;;
12363;SDS011;6246;50.826;4.712;2023-02-21T09:50:27;18.30;;;5.27;;
12363;SDS011;6246;50.826;4.712;2023-02-21T09:52:56;19.60;;;5.30;;
12363;SDS011;6246;50.826;4.712;2023-02-21T09:57:51;10.53;;;4.80;;
12363;SDS011;6246;50.826;4.712;2023-02-21T10:00:18;11.90;;;4.90;;
12363;SDS011;6246;50.826;4.712;2023-02-21T10:12:55;10.87;;;5.50;;
12363;SDS011;6246;50.826;4.712;2023-02-21T10:17:56;7.60;;;4.83;;
12363;SDS011;6246;50.826;4.712;2023-02-21T10:20:38;12.77;;;5.57;;
12363;SDS011;6246;50.826;4.712;2023-02-21T10:23:39;10.83;;;5.17;;
12363;SDS011;6246;50.826;4.712;2023-02-21T10:26:07;8.13;;;5.43;;
12363;SDS011;6246;50.826;4.712;2023-02-21T10:28:34;7.97;;;4.97;;
12363;SDS011;6246;50.826;4.712;2023-02-21T10:31:04;8.90;;;5.50;;
12363;SDS011;6246;50.826;4.712;2023-02-21T10:33:32;7.03;;;5.20;;
12363;SDS011;6246;50.826;4.712;2023-02-21T10:36:00;12.37;;;5.83;;
12363;SDS011;6246;50.826;4.712;2023-02-21T10:38:26;8.10;;;5.33;;
12363;SDS011;6246;50.826;4.712;2023-02-21T10:40:59;7.37;;;4.80;;
12363;SDS011;6246;50.826;4.712;2023-02-21T10:43:30;10.50;;;5.43;;
12363;SDS011;6246;50.826;4.712;2023-02-21T10:46:16;9.87;;;5.20;;
12363;SDS011;6246;50.826;4.712;2023-02-21T10:48:45;6.80;;;4.87;;
12363;SDS011;6246;50.826;4.712;2023-02-21T10:51:14;8.53;;;4.87;;
12363;SDS011;6246;50.826;4.712;2023-02-21T10:53:41;9.63;;;5.37;;
12363;SDS011;6246;50.826;4.712;2023-02-21T11:01:42;11.47;;;5.63;;
12363;SDS011;6246;50.826;4.712;2023-02-21T11:06:48;9.37;;;6.00;;
12363;SDS011;6246;50.826;4.712;2023-02-21T11:11:58;8.53;;;5.83;;
12363;SDS011;6246;50.826;4.712;2023-02-21T11:14:25;8.37;;;5.23;;
12363;SDS011;6246;50.826;4.712;2023-02-21T11:22:38;9.57;;;5.87;;
12363;SDS011;6246;50.826;4.712;2023-02-21T11:25:04;12.33;;;6.33;;
12363;SDS011;6246;50.826;4.712;2023-02-21T11:27:32;7.53;;;6.00;;
12363;SDS011;6246;50.826;4.712;2023-02-21T11:30:00;9.20;;;5.80;;
12363;SDS011;6246;50.826;4.712;2023-02-21T11:35:03;8.20;;;5.83;;
12363;SDS011;6246;50.826;4.712;2023-02-21T11:37:29;11.13;;;6.10;;
12363;SDS011;6246;50.826;4.712;2023-02-21T11:39:56;12.17;;;6.60;;
12363;SDS011;6246;50.826;4.712;2023-02-21T11:47:39;9.63;;;6.27;;
12363;SDS011;6246;50.826;4.712;2023-02-21T11:50:07;13.80;;;6.50;;
12363;SDS011;6246;50.826;4.712;2023-02-21T11:52:39;11.80;;;6.30;;
12363;SDS011;6246;50.826;4.712;2023-02-21T11:55:12;12.07;;;6.47;;
12363;SDS011;6246;50.826;4.712;2023-02-21T11:57:48;18.53;;;6.80;;
12363;SDS011;6246;50.826;4.712;2023-02-21T12:00:26;13.53;;;5.87;;
12363;SDS011;6246;50.826;4.712;2023-02-21T12:13:28;17.93;;;6.53;;
12363;SDS011;6246;50.826;4.712;2023-02-21T12:26:30;15.93;;;5.93;;
12363;SDS011;6246;50.826;4.712;2023-02-21T12:29:06;10.10;;;6.17;;
12363;SDS011;6246;50.826;4.712;2023-02-21T12:39:52;13.80;;;6.00;;
12363;SDS011;6246;50.826;4.712;2023-02-21T12:42:24;11.27;;;6.10;;
12363;SDS011;6246;50.826;4.712;2023-02-21T12:47:47;10.90;;;6.60;;
12363;SDS011;6246;50.826;4.712;2023-02-21T12:52:51;11.97;;;6.77;;
12363;SDS011;6246;50.826;4.712;2023-02-21T12:55:25;14.80;;;7.13;;
12363;SDS011;6246;50.826;4.712;2023-02-21T12:57:53;11.60;;;6.97;;
12363;SDS011;6246;50.826;4.712;2023-02-21T13:00:23;12.77;;;6.93;;
12363;SDS011;6246;50.826;4.712;2023-02-21T13:02:54;12.00;;;6.87;;
12363;SDS011;6246;50.826;4.712;2023-02-21T13:05:36;10.87;;;7.00;;
12363;SDS011;6246;50.826;4.712;2023-02-21T13:08:14;10.30;;;7.07;;
12363;SDS011;6246;50.826;4.712;2023-02-21T13:13:30;11.70;;;7.50;;
12363;SDS011;6246;50.826;4.712;2023-02-21T13:15:57;10.77;;;7.07;;
12363;SDS011;6246;50.826;4.712;2023-02-21T13:18:27;12.10;;;7.57;;
12363;SDS011;6246;50.826;4.712;2023-02-21T13:20:59;13.40;;;7.60;;
12363;SDS011;6246;50.826;4.712;2023-02-21T13:23:25;13.77;;;7.77;;
12363;SDS011;6246;50.826;4.712;2023-02-21T13:28:28;14.57;;;8.20;;
12363;SDS011;6246;50.826;4.712;2023-02-21T13:30:59;11.17;;;7.03;;
12363;SDS011;6246;50.826;4.712;2023-02-21T13:33:41;12.90;;;8.40;;
12363;SDS011;6246;50.826;4.712;2023-02-21T13:36:52;13.53;;;7.60;;
12363;SDS011;6246;50.826;4.712;2023-02-21T13:41:29;14.10;;;9.23;;
12363;SDS011;6246;50.826;4.712;2023-02-21T13:43:58;12.30;;;8.10;;
12363;SDS011;6246;50.826;4.712;2023-02-21T13:46:57;12.07;;;8.03;;
12363;SDS011;6246;50.826;4.712;2023-02-21T13:52:12;13.70;;;7.50;;
12363;SDS011;6246;50.826;4.712;2023-02-21T13:55:07;13.63;;;7.63;;
12363;SDS011;6246;50.826;4.712;2023-02-21T13:57:28;10.97;;;7.57;;
12363;SDS011;6246;50.826;4.712;2023-02-21T13:59:54;10.03;;;7.33;;
12363;SDS011;6246;50.826;4.712;2023-02-21T14:02:22;13.53;;;8.50;;
12363;SDS011;6246;50.826;4.712;2023-02-21T14:10:19;13.43;;;8.70;;
12363;SDS011;6246;50.826;4.712;2023-02-21T14:12:52;12.80;;;7.93;;
12363;SDS011;6246;50.826;4.712;2023-02-21T14:15:19;14.07;;;8.73;;
12363;SDS011;6246;50.826;4.712;2023-02-21T14:17:46;12.27;;;8.37;;
12363;SDS011;6246;50.826;4.712;2023-02-21T14:20:15;12.13;;;8.03;;
12363;SDS011;6246;50.826;4.712;2023-02-21T14:22:42;13.20;;;8.50;;
12363;SDS011;6246;50.826;4.712;2023-02-21T14:25:15;14.87;;;8.40;;
12363;SDS011;6246;50.826;4.712;2023-02-21T14:27:42;14.47;;;9.23;;
12363;SDS011;6246;50.826;4.712;2023-02-21T14:32:41;15.23;;;8.90;;
12363;SDS011;6246;50.826;4.712;2023-02-21T14:38:02;13.57;;;9.03;;
12363;SDS011;6246;50.826;4.712;2023-02-21T14:40:32;13.50;;;8.73;;
12363;SDS011;6246;50.826;4.712;2023-02-21T14:48:18;12.60;;;8.43;;
12363;SDS011;6246;50.826;4.712;2023-02-21T14:56:34;13.63;;;9.13;;
12363;SDS011;6246;50.826;4.712;2023-02-21T15:09:32;14.13;;;9.50;;
12363;SDS011;6246;50.826;4.712;2023-02-21T15:11:58;17.37;;;9.27;;
12363;SDS011;6246;50.826;4.712;2023-02-21T15:14:27;14.03;;;9.30;;
12363;SDS011;6246;50.826;4.712;2023-02-21T15:16:55;15.50;;;10.17;;
12363;SDS011;6246;50.826;4.712;2023-02-21T15:22:04;16.17;;;9.70;;
12363;SDS011;6246;50.826;4.712;2023-02-21T15:24:30;12.67;;;9.20;;
12363;SDS011;6246;50.826;4.712;2023-02-21T15:27:07;15.00;;;9.53;;
12363;SDS011;6246;50.826;4.712;2023-02-21T15:29:33;14.30;;;9.83;;
12363;SDS011;6246;50.826;4.712;2023-02-21T15:31:59;13.53;;;9.10;;
12363;SDS011;6246;50.826;4.712;2023-02-21T15:34:45;16.27;;;10.53;;
12363;SDS011;6246;50.826;4.712;2023-02-21T15:37:16;15.03;;;10.20;;
12363;SDS011;6246;50.826;4.712;2023-02-21T15:39:54;13.93;;;9.67;;
12363;SDS011;6246;50.826;4.712;2023-02-21T15:42:21;14.93;;;10.13;;
12363;SDS011;6246;50.826;4.712;2023-02-21T15:44:53;15.67;;;10.60;;
12363;SDS011;6246;50.826;4.712;2023-02-21T15:47:21;16.87;;;10.90;;
12363;SDS011;6246;50.826;4.712;2023-02-21T15:52:29;15.53;;;10.37;;
12363;SDS011;6246;50.826;4.712;2023-02-21T15:57:41;16.17;;;10.43;;
12363;SDS011;6246;50.826;4.712;2023-02-21T16:00:16;16.30;;;10.70;;
12363;SDS011;6246;50.826;4.712;2023-02-21T16:02:42;15.10;;;10.00;;
12363;SDS011;6246;50.826;4.712;2023-02-21T16:05:27;14.97;;;10.27;;
12363;SDS011;6246;50.826;4.712;2023-02-21T16:07:58;15.33;;;11.10;;
12363;SDS011;6246;50.826;4.712;2023-02-21T16:10:25;15.33;;;10.87;;
12363;SDS011;6246;50.826;4.712;2023-02-21T16:12:58;17.40;;;11.67;;
12363;SDS011;6246;50.826;4.712;2023-02-21T16:18:09;18.13;;;12.13;;
12363;SDS011;6246;50.826;4.712;2023-02-21T16:20:37;17.10;;;11.27;;
12363;SDS011;6246;50.826;4.712;2023-02-21T16:25:58;15.13;;;10.70;;
12363;SDS011;6246;50.826;4.712;2023-02-21T16:28:24;20.00;;;12.00;;
12363;SDS011;6246;50.826;4.712;2023-02-21T16:30:51;18.27;;;12.43;;
12363;SDS011;6246;50.826;4.712;2023-02-21T16:33:19;16.17;;;11.37;;
12363;SDS011;6246;50.826;4.712;2023-02-21T16:35:45;16.73;;;11.20;;
12363;SDS011;6246;50.826;4.712;2023-02-21T16:38:18;17.50;;;11.30;;
12363;SDS011;6246;50.826;4.712;2023-02-21T16:40:45;18.27;;;12.07;;
12363;SDS011;6246;50.826;4.712;2023-02-21T16:43:16;18.43;;;12.77;;
12363;SDS011;6246;50.826;4.712;2023-02-21T16:45:42;17.50;;;11.70;;
12363;SDS011;6246;50.826;4.712;2023-02-21T16:48:09;18.73;;;11.10;;
12363;SDS011;6246;50.826;4.712;2023-02-21T16:50:38;18.20;;;12.07;;
12363;SDS011;6246;50.826;4.712;2023-02-21T16:53:05;17.17;;;11.50;;
12363;SDS011;6246;50.826;4.712;2023-02-21T16:55:32;18.07;;;12.77;;
12363;SDS011;6246;50.826;4.712;2023-02-21T16:57:59;18.73;;;11.83;;
12363;SDS011;6246;50.826;4.712;2023-02-21T17:00:25;17.90;;;11.70;;
12363;SDS011;6246;50.826;4.712;2023-02-21T17:02:52;18.17;;;12.20;;
12363;SDS011;6246;50.826;4.712;2023-02-21T17:05:18;17.20;;;11.93;;
12363;SDS011;6246;50.826;4.712;2023-02-21T17:07:48;16.77;;;11.20;;
12363;SDS011;6246;50.826;4.712;2023-02-21T17:10:15;16.03;;;11.20;;
12363;SDS011;6246;50.826;4.712;2023-02-21T17:12:42;16.90;;;11.87;;
12363;SDS011;6246;50.826;4.712;2023-02-21T17:15:08;18.30;;;12.30;;
12363;SDS011;6246;50.826;4.712;2023-02-21T17:17:37;20.03;;;13.27;;
12363;SDS011;6246;50.826;4.712;2023-02-21T17:20:04;17.83;;;12.63;;
12363;SDS011;6246;50.826;4.712;2023-02-21T17:22:30;17.90;;;12.03;;
12363;SDS011;6246;50.826;4.712;2023-02-21T17:24:56;18.23;;;12.17;;
12363;SDS011;6246;50.826;4.712;2023-02-21T17:27:22;19.30;;;13.10;;
12363;SDS011;6246;50.826;4.712;2023-02-21T17:29:48;19.23;;;12.83;;
12363;SDS011;6246;50.826;4.712;2023-02-21T17:32:14;18.63;;;12.57;;
12363;SDS011;6246;50.826;4.712;2023-02-21T17:34:40;19.73;;;12.97;;
12363;SDS011;6246;50.826;4.712;2023-02-21T17:37:07;19.07;;;12.60;;